sensor_id;sensor_type;location;lat;lon;timestamp;pressure;altitude;pressure_sealevel;temperature;humidity
82035;BME280;71599;49.892;18.914;2023-11-21T00:02:14;97916.47;;;7.16;82.24
82035;BME280;71599;49.892;18.914;2023-11-21T00:07:15;97926.50;;;7.12;81.93
82035;BME280;71599;49.892;18.914;2023-11-21T00:12:17;97926.50;;;7.12;82.02
82035;BME280;71599;49.892;18.914;2023-11-21T00:17:18;97917.50;;;7.08;81.91
82035;BME280;71599;49.892;18.914;2023-11-21T00:22:20;97930.59;;;7.02;82.29
82035;BME280;71599;49.892;18.914;2023-11-21T00:27:22;97920.75;;;6.98;81.92
82035;BME280;71599;49.892;18.914;2023-11-21T00:32:23;97928.91;;;6.98;81.83
82035;BME280;71599;49.892;18.914;2023-11-21T00:37:24;97937.22;;;7.05;81.52
82035;BME280;71599;49.892;18.914;2023-11-21T00:42:26;97932.91;;;7.04;81.01
82035;BME280;71599;49.892;18.914;2023-11-21T00:47:27;97940.72;;;7.05;81.53
82035;BME280;71599;49.892;18.914;2023-11-21T00:52:28;97945.31;;;7.01;81.36
82035;BME280;71599;49.892;18.914;2023-11-21T00:57:31;97936.44;;;7.04;80.94
82035;BME280;71599;49.892;18.914;2023-11-21T01:02:32;97930.00;;;7.12;80.74
82035;BME280;71599;49.892;18.914;2023-11-21T01:07:33;97938.66;;;7.18;80.95
82035;BME280;71599;49.892;18.914;2023-11-21T01:12:36;97946.47;;;7.19;80.76
82035;BME280;71599;49.892;18.914;2023-11-21T01:17:37;97942.38;;;7.10;80.83
82035;BME280;71599;49.892;18.914;2023-11-21T01:22:39;97951.38;;;6.94;80.53
82035;BME280;71599;49.892;18.914;2023-11-21T01:27:42;97945.00;;;6.87;80.52
82035;BME280;71599;49.892;18.914;2023-11-21T01:32:43;97954.63;;;6.84;81.06
82035;BME280;71599;49.892;18.914;2023-11-21T01:37:44;97955.84;;;6.87;80.70
82035;BME280;71599;49.892;18.914;2023-11-21T01:42:46;97952.97;;;6.80;81.02
82035;BME280;71599;49.892;18.914;2023-11-21T01:47:47;97950.75;;;6.85;80.62
82035;BME280;71599;49.892;18.914;2023-11-21T01:52:48;97947.13;;;6.78;80.73
82035;BME280;71599;49.892;18.914;2023-11-21T01:57:51;97942.31;;;6.71;81.04
82035;BME280;71599;49.892;18.914;2023-11-21T02:02:52;97933.91;;;6.76;80.81
82035;BME280;71599;49.892;18.914;2023-11-21T02:07:53;97939.31;;;6.76;81.14
82035;BME280;71599;49.892;18.914;2023-11-21T02:12:55;97948.53;;;6.72;80.66
82035;BME280;71599;49.892;18.914;2023-11-21T02:17:56;97943.47;;;6.70;80.78
82035;BME280;71599;49.892;18.914;2023-11-21T02:22:59;97943.22;;;6.60;80.64
82035;BME280;71599;49.892;18.914;2023-11-21T02:28:01;97947.59;;;6.64;80.44
82035;BME280;71599;49.892;18.914;2023-11-21T02:33:02;97947.50;;;6.61;80.77
82035;BME280;71599;49.892;18.914;2023-11-21T02:38:05;97949.28;;;6.53;80.51
82035;BME280;71599;49.892;18.914;2023-11-21T02:43:06;97959.50;;;6.60;80.40
82035;BME280;71599;49.892;18.914;2023-11-21T02:48:07;97964.66;;;6.65;80.73
82035;BME280;71599;49.892;18.914;2023-11-21T02:53:09;97968.97;;;6.66;80.44
82035;BME280;71599;49.892;18.914;2023-11-21T02:58:10;97962.38;;;6.67;80.34
82035;BME280;71599;49.892;18.914;2023-11-21T03:03:11;97949.97;;;6.66;80.38
82035;BME280;71599;49.892;18.914;2023-11-21T03:08:14;97966.66;;;6.68;80.24
82035;BME280;71599;49.892;18.914;2023-11-21T03:13:15;97959.31;;;6.68;80.15
82035;BME280;71599;49.892;18.914;2023-11-21T03:18:16;97962.63;;;6.62;80.29
82035;BME280;71599;49.892;18.914;2023-11-21T03:23:18;97962.22;;;6.60;80.00
82035;BME280;71599;49.892;18.914;2023-11-21T03:28:19;97958.34;;;6.61;79.77
82035;BME280;71599;49.892;18.914;2023-11-21T03:33:20;97971.69;;;6.66;79.56
82035;BME280;71599;49.892;18.914;2023-11-21T03:38:23;97966.25;;;6.66;79.44
82035;BME280;71599;49.892;18.914;2023-11-21T03:43:24;97957.84;;;6.55;79.91
82035;BME280;71599;49.892;18.914;2023-11-21T03:48:25;97969.94;;;6.58;80.23
82035;BME280;71599;49.892;18.914;2023-11-21T03:53:27;97966.75;;;6.55;79.58
82035;BME280;71599;49.892;18.914;2023-11-21T03:58:28;97963.25;;;6.55;79.57
82035;BME280;71599;49.892;18.914;2023-11-21T04:03:29;97963.78;;;6.61;79.66
82035;BME280;71599;49.892;18.914;2023-11-21T04:08:31;97960.03;;;6.65;79.43
82035;BME280;71599;49.892;18.914;2023-11-21T04:13:32;97955.28;;;6.62;79.51
82035;BME280;71599;49.892;18.914;2023-11-21T04:18:33;97960.28;;;6.60;79.32
82035;BME280;71599;49.892;18.914;2023-11-21T04:23:35;97962.06;;;6.52;79.26
82035;BME280;71599;49.892;18.914;2023-11-21T04:28:36;97960.38;;;6.48;79.03
82035;BME280;71599;49.892;18.914;2023-11-21T04:33:37;97963.47;;;6.46;79.31
82035;BME280;71599;49.892;18.914;2023-11-21T04:38:40;97972.81;;;6.49;79.10
82035;BME280;71599;49.892;18.914;2023-11-21T04:43:41;97972.47;;;6.50;79.10
82035;BME280;71599;49.892;18.914;2023-11-21T04:48:42;97967.84;;;6.51;78.65
82035;BME280;71599;49.892;18.914;2023-11-21T04:53:44;97972.91;;;6.52;78.56
82035;BME280;71599;49.892;18.914;2023-11-21T04:58:45;97973.88;;;6.44;78.93
82035;BME280;71599;49.892;18.914;2023-11-21T05:03:46;97982.03;;;6.44;78.76
82035;BME280;71599;49.892;18.914;2023-11-21T05:08:48;97990.50;;;6.43;78.64
82035;BME280;71599;49.892;18.914;2023-11-21T05:13:49;97999.03;;;6.41;78.41
82035;BME280;71599;49.892;18.914;2023-11-21T05:18:50;97992.88;;;6.44;78.84
82035;BME280;71599;49.892;18.914;2023-11-21T05:23:53;98005.31;;;6.45;78.66
82035;BME280;71599;49.892;18.914;2023-11-21T05:28:54;98007.31;;;6.48;78.33
82035;BME280;71599;49.892;18.914;2023-11-21T05:33:55;98003.81;;;6.48;78.42
82035;BME280;71599;49.892;18.914;2023-11-21T05:38:58;98007.06;;;6.53;78.28
82035;BME280;71599;49.892;18.914;2023-11-21T05:43:59;98010.53;;;6.54;78.13
82035;BME280;71599;49.892;18.914;2023-11-21T05:49:00;98026.50;;;6.40;77.90
82035;BME280;71599;49.892;18.914;2023-11-21T05:54:03;98033.59;;;6.44;77.75
82035;BME280;71599;49.892;18.914;2023-11-21T05:59:04;98032.63;;;6.52;78.54
82035;BME280;71599;49.892;18.914;2023-11-21T06:04:05;98038.06;;;6.52;78.21
82035;BME280;71599;49.892;18.914;2023-11-21T06:09:07;98044.81;;;6.59;78.15
82035;BME280;71599;49.892;18.914;2023-11-21T06:14:08;98032.38;;;6.58;78.91
82035;BME280;71599;49.892;18.914;2023-11-21T06:19:09;98051.09;;;6.63;78.26
82035;BME280;71599;49.892;18.914;2023-11-21T06:24:12;98055.81;;;6.50;77.95
82035;BME280;71599;49.892;18.914;2023-11-21T06:29:12;98061.25;;;6.50;78.64
82035;BME280;71599;49.892;18.914;2023-11-21T06:34:13;98059.00;;;6.52;78.17
82035;BME280;71599;49.892;18.914;2023-11-21T06:39:16;98069.59;;;6.57;78.32
82035;BME280;71599;49.892;18.914;2023-11-21T06:44:17;98079.19;;;6.54;77.97
82035;BME280;71599;49.892;18.914;2023-11-21T06:49:18;98087.78;;;6.57;78.26
82035;BME280;71599;49.892;18.914;2023-11-21T06:54:21;98078.78;;;6.68;78.27
82035;BME280;71599;49.892;18.914;2023-11-21T06:59:22;98086.75;;;6.77;78.34
82035;BME280;71599;49.892;18.914;2023-11-21T07:04:23;98080.53;;;6.76;77.60
82035;BME280;71599;49.892;18.914;2023-11-21T07:09:25;98084.03;;;6.77;77.74
82035;BME280;71599;49.892;18.914;2023-11-21T07:14:26;98091.47;;;6.80;77.65
82035;BME280;71599;49.892;18.914;2023-11-21T07:19:27;98084.28;;;6.87;77.74
82035;BME280;71599;49.892;18.914;2023-11-21T07:24:29;98085.88;;;6.88;77.36
82035;BME280;71599;49.892;18.914;2023-11-21T07:29:30;98089.63;;;7.00;77.61
82035;BME280;71599;49.892;18.914;2023-11-21T07:34:31;98088.31;;;6.93;77.30
82035;BME280;71599;49.892;18.914;2023-11-21T07:39:34;98088.50;;;6.85;76.80
82035;BME280;71599;49.892;18.914;2023-11-21T07:44:35;98088.06;;;6.99;77.24
82035;BME280;71599;49.892;18.914;2023-11-21T07:49:36;98084.03;;;7.08;77.50
82035;BME280;71599;49.892;18.914;2023-11-21T07:54:38;98091.88;;;7.29;76.86
82035;BME280;71599;49.892;18.914;2023-11-21T07:59:40;98087.22;;;7.29;76.68
82035;BME280;71599;49.892;18.914;2023-11-21T08:04:41;98092.03;;;7.36;76.08
82035;BME280;71599;49.892;18.914;2023-11-21T08:09:43;98104.53;;;7.41;76.24
82035;BME280;71599;49.892;18.914;2023-11-21T08:14:44;98107.44;;;7.48;75.88
82035;BME280;71599;49.892;18.914;2023-11-21T08:19:45;98107.47;;;7.67;75.60
82035;BME280;71599;49.892;18.914;2023-11-21T08:24:47;98120.78;;;7.72;75.00
82035;BME280;71599;49.892;18.914;2023-11-21T08:29:48;98123.66;;;7.79;74.61
82035;BME280;71599;49.892;18.914;2023-11-21T08:34:49;98123.84;;;7.70;74.16
82035;BME280;71599;49.892;18.914;2023-11-21T08:39:51;98119.19;;;7.71;74.07
82035;BME280;71599;49.892;18.914;2023-11-21T08:44:53;98131.81;;;7.79;74.35
82035;BME280;71599;49.892;18.914;2023-11-21T08:49:53;98133.56;;;7.87;74.10
82035;BME280;71599;49.892;18.914;2023-11-21T08:54:56;98132.38;;;7.88;73.79
82035;BME280;71599;49.892;18.914;2023-11-21T08:59:57;98135.69;;;7.97;74.16
82035;BME280;71599;49.892;18.914;2023-11-21T09:04:58;98144.84;;;7.89;73.72
82035;BME280;71599;49.892;18.914;2023-11-21T09:10:00;98140.53;;;7.88;74.06
82035;BME280;71599;49.892;18.914;2023-11-21T09:15:01;98140.00;;;7.98;73.94
82035;BME280;71599;49.892;18.914;2023-11-21T09:20:03;98145.00;;;8.15;73.80
82035;BME280;71599;49.892;18.914;2023-11-21T09:25:06;98136.00;;;8.31;73.97
82035;BME280;71599;49.892;18.914;2023-11-21T09:30:08;98127.75;;;8.46;73.58
82035;BME280;71599;49.892;18.914;2023-11-21T09:35:09;98128.44;;;8.63;72.80
82035;BME280;71599;49.892;18.914;2023-11-21T09:40:12;98136.03;;;8.73;72.29
82035;BME280;71599;49.892;18.914;2023-11-21T09:45:18;98143.94;;;8.81;71.98
82035;BME280;71599;49.892;18.914;2023-11-21T09:50:22;98133.13;;;8.85;71.50
82035;BME280;71599;49.892;18.914;2023-11-21T09:55:27;98133.16;;;8.88;70.53
82035;BME280;71599;49.892;18.914;2023-11-21T10:00:29;98141.13;;;8.97;70.75
82035;BME280;71599;49.892;18.914;2023-11-21T10:05:31;98136.31;;;8.90;70.25
82035;BME280;71599;49.892;18.914;2023-11-21T10:10:33;98138.25;;;8.90;69.86
82035;BME280;71599;49.892;18.914;2023-11-21T10:15:34;98138.06;;;9.02;69.78
82035;BME280;71599;49.892;18.914;2023-11-21T10:20:35;98144.81;;;8.85;69.67
82035;BME280;71599;49.892;18.914;2023-11-21T10:25:38;98138.50;;;8.81;69.05
82035;BME280;71599;49.892;18.914;2023-11-21T10:30:39;98138.25;;;8.90;69.62
82035;BME280;71599;49.892;18.914;2023-11-21T10:35:44;98142.63;;;8.94;69.38
82035;BME280;71599;49.892;18.914;2023-11-21T10:40:46;98139.59;;;8.99;70.05
82035;BME280;71599;49.892;18.914;2023-11-21T10:45:47;98133.28;;;8.95;69.06
82035;BME280;71599;49.892;18.914;2023-11-21T10:50:48;98135.09;;;8.88;69.06
82035;BME280;71599;49.892;18.914;2023-11-21T10:55:51;98135.47;;;8.86;68.19
82035;BME280;71599;49.892;18.914;2023-11-21T11:01:02;98129.09;;;9.02;67.98
82035;BME280;71599;49.892;18.914;2023-11-21T11:06:05;98131.75;;;8.98;68.02
82035;BME280;71599;49.892;18.914;2023-11-21T11:11:09;98133.97;;;8.89;68.10
82035;BME280;71599;49.892;18.914;2023-11-21T11:16:10;98128.56;;;8.92;67.74
82035;BME280;71599;49.892;18.914;2023-11-21T11:21:22;98123.72;;;8.82;66.45
82035;BME280;71599;49.892;18.914;2023-11-21T11:26:46;98137.03;;;8.87;66.98
82035;BME280;71599;49.892;18.914;2023-11-21T11:31:55;98129.59;;;8.84;67.47
82035;BME280;71599;49.892;18.914;2023-11-21T11:37:01;98126.09;;;8.84;67.65
82035;BME280;71599;49.892;18.914;2023-11-21T11:42:06;98139.41;;;8.89;67.74
82035;BME280;71599;49.892;18.914;2023-11-21T11:47:13;98143.63;;;8.86;67.46
82035;BME280;71599;49.892;18.914;2023-11-21T11:52:37;98147.72;;;8.73;68.08
82035;BME280;71599;49.892;18.914;2023-11-21T11:57:41;98149.06;;;8.64;68.90
82035;BME280;71599;49.892;18.914;2023-11-21T12:02:44;98145.56;;;8.63;69.56
82035;BME280;71599;49.892;18.914;2023-11-21T12:07:47;98149.81;;;8.61;70.42
82035;BME280;71599;49.892;18.914;2023-11-21T12:12:50;98140.34;;;8.54;70.53
82035;BME280;71599;49.892;18.914;2023-11-21T12:17:52;98142.69;;;8.56;70.81
82035;BME280;71599;49.892;18.914;2023-11-21T12:22:55;98143.94;;;8.58;71.55
82035;BME280;71599;49.892;18.914;2023-11-21T12:27:58;98144.53;;;8.71;71.84
82035;BME280;71599;49.892;18.914;2023-11-21T12:33:00;98147.56;;;8.66;71.90
82035;BME280;71599;49.892;18.914;2023-11-21T12:38:02;98149.50;;;8.66;71.66
82035;BME280;71599;49.892;18.914;2023-11-21T12:43:06;98147.56;;;8.66;71.12
82035;BME280;71599;49.892;18.914;2023-11-21T12:48:07;98149.44;;;8.62;70.51
82035;BME280;71599;49.892;18.914;2023-11-21T12:53:10;98152.91;;;8.21;70.95
82035;BME280;71599;49.892;18.914;2023-11-21T12:58:13;98155.31;;;7.87;71.63
82035;BME280;71599;49.892;18.914;2023-11-21T13:03:15;98165.72;;;7.66;72.27
82035;BME280;71599;49.892;18.914;2023-11-21T13:08:17;98175.84;;;7.50;73.28
82035;BME280;71599;49.892;18.914;2023-11-21T13:13:20;98183.09;;;7.46;73.47
82035;BME280;71599;49.892;18.914;2023-11-21T13:18:21;98183.09;;;7.46;74.19
82035;BME280;71599;49.892;18.914;2023-11-21T13:23:22;98183.28;;;7.53;74.73
82035;BME280;71599;49.892;18.914;2023-11-21T13:28:24;98179.44;;;7.54;74.16
82035;BME280;71599;49.892;18.914;2023-11-21T13:33:25;98188.03;;;7.56;74.02
82035;BME280;71599;49.892;18.914;2023-11-21T13:38:26;98184.88;;;7.54;74.46
82035;BME280;71599;49.892;18.914;2023-11-21T13:43:28;98190.84;;;7.44;74.79
82035;BME280;71599;49.892;18.914;2023-11-21T13:48:29;98181.22;;;7.30;74.39
82035;BME280;71599;49.892;18.914;2023-11-21T13:53:30;98184.88;;;7.22;74.38
82035;BME280;71599;49.892;18.914;2023-11-21T13:58:33;98193.31;;;7.17;74.46
82035;BME280;71599;49.892;18.914;2023-11-21T14:03:33;98197.94;;;7.17;75.18
82035;BME280;71599;49.892;18.914;2023-11-21T14:08:35;98201.28;;;7.10;75.42
82035;BME280;71599;49.892;18.914;2023-11-21T14:13:37;98198.94;;;7.09;75.51
82035;BME280;71599;49.892;18.914;2023-11-21T14:18:38;98196.28;;;7.12;76.07
82035;BME280;71599;49.892;18.914;2023-11-21T14:23:39;98199.09;;;7.16;75.76
82035;BME280;71599;49.892;18.914;2023-11-21T14:28:41;98204.81;;;7.26;75.52
82035;BME280;71599;49.892;18.914;2023-11-21T14:33:43;98194.63;;;7.23;75.74
82035;BME280;71599;49.892;18.914;2023-11-21T14:38:44;98211.38;;;7.25;75.33
82035;BME280;71599;49.892;18.914;2023-11-21T14:43:46;98213.47;;;7.16;75.55
82035;BME280;71599;49.892;18.914;2023-11-21T14:48:48;98213.47;;;7.16;75.50
82035;BME280;71599;49.892;18.914;2023-11-21T14:53:48;98218.56;;;7.18;75.40
82035;BME280;71599;49.892;18.914;2023-11-21T14:58:51;98221.88;;;7.11;75.32
82035;BME280;71599;49.892;18.914;2023-11-21T15:03:52;98228.81;;;7.09;75.62
82035;BME280;71599;49.892;18.914;2023-11-21T15:08:55;98225.47;;;7.00;75.36
82035;BME280;71599;49.892;18.914;2023-11-21T15:13:59;98231.16;;;6.94;75.84
82035;BME280;71599;49.892;18.914;2023-11-21T15:19:00;98238.72;;;7.01;75.88
82035;BME280;71599;49.892;18.914;2023-11-21T15:24:01;98237.56;;;7.02;75.90
82035;BME280;71599;49.892;18.914;2023-11-21T15:29:03;98247.13;;;6.96;76.01
82035;BME280;71599;49.892;18.914;2023-11-21T15:34:04;98248.50;;;6.90;76.24
82035;BME280;71599;49.892;18.914;2023-11-21T15:39:05;98253.56;;;6.76;76.42
82035;BME280;71599;49.892;18.914;2023-11-21T15:44:07;98252.50;;;6.80;76.86
82035;BME280;71599;49.892;18.914;2023-11-21T15:49:10;98250.31;;;6.86;76.22
82035;BME280;71599;49.892;18.914;2023-11-21T15:54:11;98249.19;;;6.87;77.37
82035;BME280;71599;49.892;18.914;2023-11-21T15:59:14;98259.84;;;6.80;77.04
82035;BME280;71599;49.892;18.914;2023-11-21T16:04:15;98269.50;;;6.77;77.67
82035;BME280;71599;49.892;18.914;2023-11-21T16:09:16;98270.38;;;6.81;77.51
82035;BME280;71599;49.892;18.914;2023-11-21T16:14:19;98267.00;;;6.72;77.82
82035;BME280;71599;49.892;18.914;2023-11-21T16:19:20;98273.06;;;6.66;78.34
82035;BME280;71599;49.892;18.914;2023-11-21T16:24:21;98271.06;;;6.50;79.01
82035;BME280;71599;49.892;18.914;2023-11-21T16:29:23;98285.44;;;6.51;79.31
82035;BME280;71599;49.892;18.914;2023-11-21T16:34:24;98284.09;;;6.45;79.24
82035;BME280;71599;49.892;18.914;2023-11-21T16:39:25;98291.75;;;6.55;79.79
82035;BME280;71599;49.892;18.914;2023-11-21T16:44:27;98297.63;;;6.57;79.50
82035;BME280;71599;49.892;18.914;2023-11-21T16:49:28;98294.59;;;6.59;79.39
82035;BME280;71599;49.892;18.914;2023-11-21T16:54:29;98304.06;;;6.65;79.53
82035;BME280;71599;49.892;18.914;2023-11-21T16:59:32;98306.56;;;6.58;79.99
82035;BME280;71599;49.892;18.914;2023-11-21T17:04:33;98312.00;;;6.58;79.34
82035;BME280;71599;49.892;18.914;2023-11-21T17:09:34;98315.38;;;6.54;79.83
82035;BME280;71599;49.892;18.914;2023-11-21T17:14:36;98322.53;;;6.59;80.33
82035;BME280;71599;49.892;18.914;2023-11-21T17:19:37;98323.66;;;6.58;80.49
82035;BME280;71599;49.892;18.914;2023-11-21T17:24:39;98321.94;;;6.66;81.13
82035;BME280;71599;49.892;18.914;2023-11-21T17:29:41;98326.00;;;6.72;80.76
82035;BME280;71599;49.892;18.914;2023-11-21T17:34:42;98326.97;;;6.79;80.90
82035;BME280;71599;49.892;18.914;2023-11-21T17:39:43;98316.47;;;6.78;80.34
82035;BME280;71599;49.892;18.914;2023-11-21T17:44:46;98329.44;;;6.84;79.97
82035;BME280;71599;49.892;18.914;2023-11-21T17:49:47;98325.25;;;6.87;80.40
82035;BME280;71599;49.892;18.914;2023-11-21T17:54:48;98331.38;;;6.84;80.38
82035;BME280;71599;49.892;18.914;2023-11-21T17:59:50;98330.09;;;6.93;79.95
82035;BME280;71599;49.892;18.914;2023-11-21T18:04:51;98340.88;;;6.90;80.07
82035;BME280;71599;49.892;18.914;2023-11-21T18:09:52;98340.63;;;6.95;80.22
82035;BME280;71599;49.892;18.914;2023-11-21T18:14:54;98349.09;;;6.93;80.34
82035;BME280;71599;49.892;18.914;2023-11-21T18:19:55;98347.63;;;6.96;80.32
82035;BME280;71599;49.892;18.914;2023-11-21T18:24:56;98356.81;;;6.91;79.95
82035;BME280;71599;49.892;18.914;2023-11-21T18:29:59;98345.84;;;6.88;80.03
82035;BME280;71599;49.892;18.914;2023-11-21T18:35:00;98354.66;;;6.85;80.25
82035;BME280;71599;49.892;18.914;2023-11-21T18:40:01;98355.38;;;6.82;80.14
82035;BME280;71599;49.892;18.914;2023-11-21T18:45:05;98359.13;;;6.77;80.21
82035;BME280;71599;49.892;18.914;2023-11-21T18:50:07;98361.72;;;6.74;80.35
82035;BME280;71599;49.892;18.914;2023-11-21T18:55:08;98370.22;;;6.72;80.27
82035;BME280;71599;49.892;18.914;2023-11-21T19:00:11;98371.16;;;6.64;81.30
82035;BME280;71599;49.892;18.914;2023-11-21T19:05:12;98374.53;;;6.61;81.05
82035;BME280;71599;49.892;18.914;2023-11-21T19:10:13;98374.31;;;6.54;80.87
82035;BME280;71599;49.892;18.914;2023-11-21T19:15:16;98388.50;;;6.47;80.93
82035;BME280;71599;49.892;18.914;2023-11-21T19:20:17;98392.66;;;6.08;80.84
82035;BME280;71599;49.892;18.914;2023-11-21T19:25:18;98418.03;;;5.67;80.64
82035;BME280;71599;49.892;18.914;2023-11-21T19:30:20;98423.69;;;5.29;80.65
82035;BME280;71599;49.892;18.914;2023-11-21T19:35:22;98442.91;;;5.16;80.84
82035;BME280;71599;49.892;18.914;2023-11-21T19:40:23;98453.63;;;4.91;81.23
82035;BME280;71599;49.892;18.914;2023-11-21T19:45:25;98455.38;;;4.67;81.46
82035;BME280;71599;49.892;18.914;2023-11-21T19:50:26;98481.28;;;4.47;81.33
82035;BME280;71599;49.892;18.914;2023-11-21T19:55:27;98481.31;;;4.38;81.66
82035;BME280;71599;49.892;18.914;2023-11-21T20:00:30;98502.38;;;4.33;81.16
82035;BME280;71599;49.892;18.914;2023-11-21T20:05:31;98507.97;;;4.19;81.39
82035;BME280;71599;49.892;18.914;2023-11-21T20:10:32;98525.38;;;4.09;81.26
82035;BME280;71599;49.892;18.914;2023-11-21T20:15:34;98538.44;;;3.90;80.98
82035;BME280;71599;49.892;18.914;2023-11-21T20:20:35;98539.72;;;3.67;80.85
82035;BME280;71599;49.892;18.914;2023-11-21T20:25:36;98559.75;;;3.66;81.08
82035;BME280;71599;49.892;18.914;2023-11-21T20:30:39;98565.47;;;3.56;81.09
82035;BME280;71599;49.892;18.914;2023-11-21T20:35:40;98578.81;;;3.35;81.13
82035;BME280;71599;49.892;18.914;2023-11-21T20:40:41;98582.28;;;3.18;80.73
82035;BME280;71599;49.892;18.914;2023-11-21T20:45:43;98580.97;;;3.07;80.55
82035;BME280;71599;49.892;18.914;2023-11-21T20:50:44;98609.19;;;2.84;80.45
82035;BME280;71599;49.892;18.914;2023-11-21T20:55:45;98611.38;;;2.82;80.76
82035;BME280;71599;49.892;18.914;2023-11-21T21:00:47;98636.59;;;2.69;80.54
82035;BME280;71599;49.892;18.914;2023-11-21T21:05:49;98640.19;;;2.56;80.24
82035;BME280;71599;49.892;18.914;2023-11-21T21:10:50;98646.88;;;2.36;80.24
82035;BME280;71599;49.892;18.914;2023-11-21T21:15:52;98663.81;;;2.28;80.21
82035;BME280;71599;49.892;18.914;2023-11-21T21:20:55;98671.22;;;2.22;80.11
82035;BME280;71599;49.892;18.914;2023-11-21T21:25:56;98681.28;;;2.30;80.32
82035;BME280;71599;49.892;18.914;2023-11-21T21:30:59;98695.38;;;2.05;79.69
82035;BME280;71599;49.892;18.914;2023-11-21T21:35:59;98702.25;;;1.75;79.28
82035;BME280;71599;49.892;18.914;2023-11-21T21:41:00;98725.25;;;1.45;78.85
82035;BME280;71599;49.892;18.914;2023-11-21T21:46:03;98730.53;;;1.37;78.73
82035;BME280;71599;49.892;18.914;2023-11-21T21:51:04;98757.16;;;1.38;78.90
82035;BME280;71599;49.892;18.914;2023-11-21T21:56:05;98755.25;;;1.25;78.82
82035;BME280;71599;49.892;18.914;2023-11-21T22:01:07;98759.13;;;1.19;78.61
82035;BME280;71599;49.892;18.914;2023-11-21T22:06:08;98768.72;;;1.25;78.76
82035;BME280;71599;49.892;18.914;2023-11-21T22:11:09;98777.00;;;1.15;78.54
82035;BME280;71599;49.892;18.914;2023-11-21T22:16:14;98776.16;;;1.01;78.91
82035;BME280;71599;49.892;18.914;2023-11-21T22:21:15;98780.66;;;1.05;79.04
82035;BME280;71599;49.892;18.914;2023-11-21T22:31:57;98804.00;;;1.10;78.58
82035;BME280;71599;49.892;18.914;2023-11-21T22:36:58;98808.16;;;1.02;78.41
82035;BME280;71599;49.892;18.914;2023-11-21T22:41:59;98823.03;;;0.81;78.46
82035;BME280;71599;49.892;18.914;2023-11-21T22:47:01;98827.06;;;0.83;78.35
82035;BME280;71599;49.892;18.914;2023-11-21T22:52:03;98843.00;;;0.80;78.57
82035;BME280;71599;49.892;18.914;2023-11-21T22:57:04;98840.97;;;0.72;78.82
82035;BME280;71599;49.892;18.914;2023-11-21T23:02:06;98844.53;;;0.67;79.02
82035;BME280;71599;49.892;18.914;2023-11-21T23:07:07;98843.88;;;0.57;78.95
82035;BME280;71599;49.892;18.914;2023-11-21T23:12:08;98840.78;;;0.31;78.92
82035;BME280;71599;49.892;18.914;2023-11-21T23:17:11;98842.13;;;0.28;79.49
82035;BME280;71599;49.892;18.914;2023-11-21T23:22:12;98851.56;;;0.26;79.40
82035;BME280;71599;49.892;18.914;2023-11-21T23:27:13;98852.16;;;0.23;79.86
82035;BME280;71599;49.892;18.914;2023-11-21T23:32:15;98854.25;;;0.26;79.76
82035;BME280;71599;49.892;18.914;2023-11-21T23:37:16;98856.53;;;0.19;79.91
82035;BME280;71599;49.892;18.914;2023-11-21T23:42:17;98870.81;;;0.14;80.49
82035;BME280;71599;49.892;18.914;2023-11-21T23:47:19;98874.78;;;-0.02;80.63
82035;BME280;71599;49.892;18.914;2023-11-21T23:52:20;98877.38;;;-0.16;80.31
82035;BME280;71599;49.892;18.914;2023-11-21T23:57:21;98885.81;;;-0.27;80.63
